Time;durP1;ratioP1;P1;durP2;ratioP2;P2;SDS_P1;SDS_P2;PMS_P1;PMS_P2;Temp;Humidity;BMP_temperature;BMP_pressure;BME280_temperature;BME280_humidity;BME280_pressure;Samples;Min_cycle;Max_cycle;Signal;HPM_P1;HPM_P2
2023/05/07 00:01:10;;;;;;;2.63;2.43;;;;;;;;;;5043042;28;20266;-79
2023/05/07 00:03:36;;;;;;;2.33;2.13;;;;;;;;;;5045200;28;20209;-79
2023/05/07 00:06:01;;;;;;;3.17;2.57;;;;;;;;;;5046751;28;20180;-79
2023/05/07 00:08:26;;;;;;;2.77;2.57;;;;;;;;;;5044578;28;20243;-79
2023/05/07 00:10:52;;;;;;;3.20;2.40;;;;;;;;;;5046262;28;20182;-79
2023/05/07 00:13:17;;;;;;;3.07;2.77;;;;;;;;;;5047110;28;20171;-79
2023/05/07 00:15:42;;;;;;;2.90;2.70;;;;;;;;;;5043521;28;20181;-79
2023/05/07 00:18:07;;;;;;;3.10;2.80;;;;;;;;;;5049931;28;20224;-79
2023/05/07 00:20:32;;;;;;;3.10;2.87;;;;;;;;;;5041493;28;20173;-79
2023/05/07 00:22:58;;;;;;;2.83;2.63;;;;;;;;;;5058615;28;20215;-79
2023/05/07 00:25:23;;;;;;;3.57;3.27;;;;;;;;;;5044913;28;20181;-79
2023/05/07 00:27:48;;;;;;;2.80;2.50;;;;;;;;;;5047361;28;20219;-79
2023/05/07 00:30:14;;;;;;;3.00;2.70;;;;;;;;;;5045988;28;20231;-79
2023/05/07 00:32:39;;;;;;;2.90;2.70;;;;;;;;;;5048190;28;20275;-79
2023/05/07 00:35:05;;;;;;;3.53;3.00;;;;;;;;;;5046920;28;20184;-79
2023/05/07 00:37:30;;;;;;;4.77;3.20;;;;;;;;;;5042385;28;20223;-80
2023/05/07 00:39:56;;;;;;;3.77;2.60;;;;;;;;;;5044053;28;20212;-80
2023/05/07 00:42:21;;;;;;;3.30;3.00;;;;;;;;;;5044543;28;20215;-79
2023/05/07 00:44:46;;;;;;;2.77;2.40;;;;;;;;;;5047855;28;20175;-79
2023/05/07 00:47:11;;;;;;;3.27;2.70;;;;;;;;;;5042304;28;20190;-79
2023/05/07 00:49:45;;;;;;;5.87;2.77;;;;;;;;;;5043882;28;20203;-79
2023/05/07 00:52:12;;;;;;;4.13;3.23;;;;;;;;;;5046656;28;20180;-79
2023/05/07 00:54:38;;;;;;;3.30;3.00;;;;;;;;;;5048237;28;20279;-79
2023/05/07 00:57:03;;;;;;;3.70;3.00;;;;;;;;;;5045082;28;20257;-79
2023/05/07 00:59:30;;;;;;;3.57;3.27;;;;;;;;;;5039913;28;20194;-79
2023/05/07 01:01:55;;;;;;;3.93;3.30;;;;;;;;;;5044367;28;20172;-79
2023/05/07 01:04:20;;;;;;;4.23;3.53;;;;;;;;;;5039027;28;20175;-79
2023/05/07 01:06:46;;;;;;;3.10;2.90;;;;;;;;;;5049699;28;20167;-79
2023/05/07 01:09:11;;;;;;;3.23;2.93;;;;;;;;;;5044680;28;20210;-79
2023/05/07 01:11:37;;;;;;;3.50;3.07;;;;;;;;;;5042508;28;20183;-79
2023/05/07 01:14:02;;;;;;;4.67;3.40;;;;;;;;;;5045342;28;20184;-79
2023/05/07 01:16:27;;;;;;;5.20;3.13;;;;;;;;;;5060378;28;20188;-79
2023/05/07 01:18:53;;;;;;;3.20;2.90;;;;;;;;;;5040816;28;20215;-79
2023/05/07 01:21:18;;;;;;;3.00;2.70;;;;;;;;;;5047835;28;20191;-79
2023/05/07 01:23:44;;;;;;;3.27;2.97;;;;;;;;;;5045510;28;20177;-79
2023/05/07 01:26:09;;;;;;;3.87;3.10;;;;;;;;;;5041288;28;20476;-79
2023/05/07 01:28:34;;;;;;;3.27;3.00;;;;;;;;;;5043070;28;20271;-79
2023/05/07 01:31:04;;;;;;;3.30;3.03;;;;;;;;;;5044963;28;20243;-79
2023/05/07 01:33:31;;;;;;;3.37;3.07;;;;;;;;;;5037805;28;20198;-79
2023/05/07 01:35:58;;;;;;;3.30;3.00;;;;;;;;;;5043735;28;20188;-79
2023/05/07 01:38:23;;;;;;;3.30;3.00;;;;;;;;;;5037204;28;20201;-79
2023/05/07 01:40:48;;;;;;;3.47;3.13;;;;;;;;;;5038984;28;20171;-79
2023/05/07 01:43:13;;;;;;;3.40;3.10;;;;;;;;;;5044755;28;20176;-78
2023/05/07 01:45:40;;;;;;;3.67;2.83;;;;;;;;;;5043729;28;20200;-78
2023/05/07 01:48:06;;;;;;;2.93;2.73;;;;;;;;;;5046371;28;20210;-78
2023/05/07 01:50:32;;;;;;;3.13;2.83;;;;;;;;;;5041217;28;20188;-78
2023/05/07 01:52:57;;;;;;;3.90;3.43;;;;;;;;;;5042977;28;20193;-78
2023/05/07 01:55:22;;;;;;;3.37;3.07;;;;;;;;;;5044891;28;20188;-78
2023/05/07 01:57:47;;;;;;;3.67;3.30;;;;;;;;;;5044969;28;20197;-78
2023/05/07 02:00:13;;;;;;;5.03;3.50;;;;;;;;;;5042985;28;20185;-78
2023/05/07 02:02:38;;;;;;;5.20;3.13;;;;;;;;;;5039556;28;20279;-78
2023/05/07 02:05:04;;;;;;;4.20;3.13;;;;;;;;;;5040378;28;20199;-78
2023/05/07 02:07:29;;;;;;;3.53;3.00;;;;;;;;;;5042888;28;20196;-78
2023/05/07 02:09:55;;;;;;;4.57;3.27;;;;;;;;;;5042975;28;20175;-78
2023/05/07 02:12:20;;;;;;;3.90;3.10;;;;;;;;;;5042733;28;20183;-78
2023/05/07 02:14:46;;;;;;;4.13;3.37;;;;;;;;;;5045639;28;20185;-78
2023/05/07 02:17:11;;;;;;;4.10;2.97;;;;;;;;;;5045569;28;20180;-78
2023/05/07 02:19:36;;;;;;;6.63;3.00;;;;;;;;;;5042621;28;20190;-78
2023/05/07 02:22:01;;;;;;;4.10;3.20;;;;;;;;;;5045603;28;20242;-78
2023/05/07 02:24:26;;;;;;;3.43;3.13;;;;;;;;;;5039556;28;20184;-78
2023/05/07 02:26:51;;;;;;;3.43;3.10;;;;;;;;;;5045042;28;20206;-78
2023/05/07 02:29:17;;;;;;;4.33;2.80;;;;;;;;;;5044266;28;20184;-78
2023/05/07 02:31:42;;;;;;;4.13;3.43;;;;;;;;;;5044020;28;20223;-78
2023/05/07 02:34:07;;;;;;;3.30;3.10;;;;;;;;;;5042601;28;20177;-78
2023/05/07 02:36:32;;;;;;;3.10;2.80;;;;;;;;;;5043048;28;20184;-78
2023/05/07 02:38:57;;;;;;;3.33;3.13;;;;;;;;;;5042080;28;20199;-78
2023/05/07 02:41:23;;;;;;;3.23;2.93;;;;;;;;;;5045040;28;20191;-78
2023/05/07 02:43:48;;;;;;;4.17;2.93;;;;;;;;;;5042995;28;20258;-78
2023/05/07 02:46:13;;;;;;;4.70;3.10;;;;;;;;;;5046114;28;20220;-78
2023/05/07 02:48:38;;;;;;;7.00;3.40;;;;;;;;;;5045521;28;20178;-78
2023/05/07 02:51:05;;;;;;;3.23;3.03;;;;;;;;;;5041060;28;20230;-78
2023/05/07 02:53:30;;;;;;;3.83;2.93;;;;;;;;;;5050095;28;20244;-78
2023/05/07 02:55:59;;;;;;;3.90;3.43;;;;;;;;;;5042521;28;20187;-78
2023/05/07 02:58:25;;;;;;;3.50;3.20;;;;;;;;;;5046158;28;20226;-78
2023/05/07 03:00:50;;;;;;;3.33;2.87;;;;;;;;;;5043613;28;20220;-78
2023/05/07 03:03:15;;;;;;;4.87;3.33;;;;;;;;;;5041205;28;20224;-78
2023/05/07 03:05:41;;;;;;;4.00;3.03;;;;;;;;;;5039732;28;20184;-78
2023/05/07 03:08:06;;;;;;;3.37;3.07;;;;;;;;;;5046686;28;20180;-78
2023/05/07 03:10:31;;;;;;;3.20;2.87;;;;;;;;;;5043374;28;20245;-78
2023/05/07 03:12:57;;;;;;;4.13;3.00;;;;;;;;;;5041938;28;20175;-78
2023/05/07 03:15:22;;;;;;;4.17;3.10;;;;;;;;;;5043413;28;20193;-78
2023/05/07 03:17:50;;;;;;;3.23;3.00;;;;;;;;;;5044335;28;20219;-78
2023/05/07 03:20:15;;;;;;;3.57;3.27;;;;;;;;;;5037099;28;20182;-78
2023/05/07 03:22:41;;;;;;;3.63;3.33;;;;;;;;;;5042967;28;20188;-78
2023/05/07 03:25:06;;;;;;;4.30;3.37;;;;;;;;;;5042635;28;20171;-78
2023/05/07 03:27:31;;;;;;;3.80;3.47;;;;;;;;;;5033769;28;20176;-78
2023/05/07 03:29:57;;;;;;;4.60;3.50;;;;;;;;;;5042912;28;20222;-78
2023/05/07 03:32:22;;;;;;;3.67;3.37;;;;;;;;;;5058597;28;20189;-78
2023/05/07 03:34:47;;;;;;;3.87;3.53;;;;;;;;;;5045989;28;20186;-78
2023/05/07 03:37:12;;;;;;;4.53;3.27;;;;;;;;;;5046425;28;20183;-78
2023/05/07 03:39:37;;;;;;;3.40;3.10;;;;;;;;;;5050049;28;20182;-78
2023/05/07 03:42:03;;;;;;;3.93;3.13;;;;;;;;;;5050134;28;20186;-78
2023/05/07 03:44:28;;;;;;;3.70;3.40;;;;;;;;;;5050165;28;20187;-78
2023/05/07 03:46:53;;;;;;;4.80;4.40;;;;;;;;;;5048129;28;20174;-78
2023/05/07 03:49:19;;;;;;;4.67;3.00;;;;;;;;;;5051198;28;20182;-78
2023/05/07 03:51:44;;;;;;;3.17;2.97;;;;;;;;;;5049380;28;20183;-78
2023/05/07 03:54:09;;;;;;;3.40;2.53;;;;;;;;;;5051639;28;20243;-78
2023/05/07 03:56:34;;;;;;;3.73;2.87;;;;;;;;;;5049344;28;20221;-78
2023/05/07 03:59:00;;;;;;;4.47;2.87;;;;;;;;;;5049097;28;20214;-78
2023/05/07 04:01:25;;;;;;;3.30;3.00;;;;;;;;;;5052676;28;20178;-78
2023/05/07 04:03:50;;;;;;;4.07;3.33;;;;;;;;;;5046076;28;20198;-78
2023/05/07 04:06:17;;;;;;;3.03;2.80;;;;;;;;;;5046094;28;20178;-77
2023/05/07 04:08:42;;;;;;;3.50;3.20;;;;;;;;;;5050195;28;20215;-78
2023/05/07 04:11:07;;;;;;;4.60;4.20;;;;;;;;;;5049289;28;20179;-78
2023/05/07 04:13:32;;;;;;;4.83;3.40;;;;;;;;;;5051039;28;20185;-78
2023/05/07 04:15:58;;;;;;;3.60;2.90;;;;;;;;;;5049467;28;20187;-78
2023/05/07 04:18:23;;;;;;;4.60;3.40;;;;;;;;;;5049712;28;20280;-78
2023/05/07 04:20:51;;;;;;;3.67;3.27;;;;;;;;;;5044903;28;20179;-78
2023/05/07 04:23:17;;;;;;;3.57;3.27;;;;;;;;;;5044963;28;20207;-78
2023/05/07 04:25:42;;;;;;;4.67;3.43;;;;;;;;;;5046035;28;20209;-78
2023/05/07 04:28:07;;;;;;;3.17;2.87;;;;;;;;;;5050645;28;20210;-78
2023/05/07 04:30:32;;;;;;;4.17;3.23;;;;;;;;;;5038865;28;20237;-78
2023/05/07 04:32:58;;;;;;;5.80;3.00;;;;;;;;;;5047291;28;20227;-78
2023/05/07 04:35:23;;;;;;;4.90;3.30;;;;;;;;;;5043982;28;20179;-78
2023/05/07 04:37:48;;;;;;;4.57;3.00;;;;;;;;;;5048110;28;20287;-78
2023/05/07 04:40:13;;;;;;;3.50;3.20;;;;;;;;;;5041069;28;20221;-78
2023/05/07 04:42:39;;;;;;;3.67;3.23;;;;;;;;;;5046713;28;20176;-78
2023/05/07 04:45:04;;;;;;;3.77;3.37;;;;;;;;;;5046395;28;20186;-78
2023/05/07 04:47:30;;;;;;;3.97;3.37;;;;;;;;;;5047346;28;20193;-77
2023/05/07 04:49:55;;;;;;;4.67;3.20;;;;;;;;;;5057829;28;20197;-78
2023/05/07 04:52:20;;;;;;;4.30;2.70;;;;;;;;;;5043954;28;20189;-78
2023/05/07 04:54:45;;;;;;;3.20;3.00;;;;;;;;;;5037788;28;20190;-78
2023/05/07 04:57:11;;;;;;;3.53;3.27;;;;;;;;;;5063054;28;20259;-78
2023/05/07 04:59:36;;;;;;;3.77;3.47;;;;;;;;;;5045655;28;20183;-78
2023/05/07 05:02:01;;;;;;;3.10;2.90;;;;;;;;;;5046907;28;20265;-78
2023/05/07 05:04:26;;;;;;;3.27;3.00;;;;;;;;;;5040705;28;20196;-78
2023/05/07 05:06:52;;;;;;;3.87;2.83;;;;;;;;;;5041659;28;20202;-78
2023/05/07 05:09:17;;;;;;;3.60;3.30;;;;;;;;;;5038678;28;20189;-78
2023/05/07 05:11:43;;;;;;;3.37;3.07;;;;;;;;;;5044778;28;20188;-78
2023/05/07 05:14:08;;;;;;;3.00;2.80;;;;;;;;;;5045920;28;20240;-78
2023/05/07 05:16:33;;;;;;;3.40;3.10;;;;;;;;;;5040138;28;20182;-78
2023/05/07 05:18:59;;;;;;;3.63;3.07;;;;;;;;;;5042998;28;20213;-78
2023/05/07 05:21:24;;;;;;;3.23;2.93;;;;;;;;;;5045314;28;20190;-78
2023/05/07 05:23:49;;;;;;;3.13;2.83;;;;;;;;;;5046591;28;20204;-78
2023/05/07 05:26:14;;;;;;;3.30;2.90;;;;;;;;;;5042592;28;20166;-78
2023/05/07 05:28:40;;;;;;;3.53;3.23;;;;;;;;;;5045403;28;20187;-78
2023/05/07 05:31:05;;;;;;;3.53;3.23;;;;;;;;;;4996103;28;1400791;-78
2023/05/07 05:33:30;;;;;;;4.07;3.57;;;;;;;;;;5046650;28;20248;-78
2023/05/07 05:35:55;;;;;;;5.33;3.60;;;;;;;;;;5046348;28;20201;-78
2023/05/07 05:38:20;;;;;;;7.23;3.47;;;;;;;;;;5044973;28;20211;-78
2023/05/07 05:40:46;;;;;;;3.20;2.60;;;;;;;;;;5040546;28;20294;-77
2023/05/07 05:43:11;;;;;;;3.57;3.03;;;;;;;;;;5041635;28;20274;-77
2023/05/07 05:45:36;;;;;;;3.87;3.57;;;;;;;;;;5044790;28;20171;-78
2023/05/07 05:48:02;;;;;;;5.43;3.73;;;;;;;;;;5043339;28;20211;-78
2023/05/07 05:50:27;;;;;;;4.03;3.53;;;;;;;;;;5041230;28;20187;-78
2023/05/07 05:52:52;;;;;;;3.43;3.13;;;;;;;;;;5043497;28;20171;-78
2023/05/07 05:55:17;;;;;;;3.87;3.57;;;;;;;;;;5043430;28;20172;-77
2023/05/07 05:57:42;;;;;;;3.30;3.00;;;;;;;;;;5037801;28;20227;-78
2023/05/07 06:00:09;;;;;;;3.30;3.00;;;;;;;;;;5049137;28;20182;-78
2023/05/07 06:02:34;;;;;;;5.07;4.67;;;;;;;;;;5045093;28;20194;-78
2023/05/07 06:04:59;;;;;;;7.07;4.30;;;;;;;;;;5045390;28;20179;-78
2023/05/07 06:07:24;;;;;;;7.07;4.17;;;;;;;;;;5043230;28;20214;-78
2023/05/07 06:09:50;;;;;;;4.87;3.30;;;;;;;;;;5045260;28;20203;-78
2023/05/07 06:12:15;;;;;;;6.13;3.57;;;;;;;;;;5042777;28;20179;-78
2023/05/07 06:14:42;;;;;;;4.27;3.40;;;;;;;;;;5046218;28;20333;-78
2023/05/07 06:17:07;;;;;;;3.43;3.10;;;;;;;;;;5046120;28;20236;-78
2023/05/07 06:19:33;;;;;;;3.83;3.10;;;;;;;;;;5044409;28;20293;-78
2023/05/07 06:21:58;;;;;;;3.23;2.93;;;;;;;;;;5043810;28;20179;-78
2023/05/07 06:24:24;;;;;;;6.30;3.90;;;;;;;;;;5041914;28;20181;-78
2023/05/07 06:26:49;;;;;;;3.17;2.87;;;;;;;;;;5045712;28;20176;-78
2023/05/07 06:29:14;;;;;;;3.57;3.00;;;;;;;;;;5041479;28;20230;-78
2023/05/07 06:31:40;;;;;;;2.80;2.60;;;;;;;;;;5045154;28;20246;-78
2023/05/07 06:34:05;;;;;;;3.33;3.00;;;;;;;;;;5046743;28;20176;-78
2023/05/07 06:36:30;;;;;;;3.20;2.90;;;;;;;;;;5042023;28;20181;-78
2023/05/07 06:38:55;;;;;;;3.40;3.10;;;;;;;;;;5043701;28;20197;-78
2023/05/07 06:41:21;;;;;;;5.20;3.77;;;;;;;;;;5044506;28;20241;-78
2023/05/07 06:43:46;;;;;;;4.20;3.53;;;;;;;;;;5045173;28;20193;-78
2023/05/07 06:46:11;;;;;;;4.77;3.73;;;;;;;;;;5042777;28;20189;-78
2023/05/07 06:48:37;;;;;;;6.33;3.70;;;;;;;;;;5044007;28;20175;-78
2023/05/07 06:51:02;;;;;;;4.67;4.17;;;;;;;;;;5041932;28;20186;-78
2023/05/07 06:53:29;;;;;;;7.27;3.77;;;;;;;;;;5046681;28;20289;-79
2023/05/07 06:55:54;;;;;;;4.90;2.90;;;;;;;;;;5039707;28;20190;-78
2023/05/07 06:58:19;;;;;;;4.07;3.70;;;;;;;;;;5039221;28;20201;-78
2023/05/07 07:00:45;;;;;;;3.20;2.90;;;;;;;;;;5033565;28;20186;-78
2023/05/07 07:03:10;;;;;;;3.13;2.90;;;;;;;;;;5043661;28;20194;-78
2023/05/07 07:05:36;;;;;;;5.00;3.30;;;;;;;;;;5037897;28;20195;-78
2023/05/07 07:08:01;;;;;;;4.63;3.00;;;;;;;;;;5040022;28;20179;-78
2023/05/07 07:10:26;;;;;;;3.10;2.90;;;;;;;;;;5043842;28;20189;-78
2023/05/07 07:12:52;;;;;;;3.53;3.20;;;;;;;;;;5042529;28;20194;-79
2023/05/07 07:15:17;;;;;;;3.87;3.57;;;;;;;;;;5045639;28;20200;-78
2023/05/07 07:17:43;;;;;;;3.30;3.07;;;;;;;;;;5042967;28;20200;-78
2023/05/07 07:20:08;;;;;;;3.23;2.70;;;;;;;;;;5038891;28;20208;-78
2023/05/07 07:22:33;;;;;;;3.47;3.17;;;;;;;;;;5044427;28;20172;-79
2023/05/07 07:24:58;;;;;;;3.73;3.17;;;;;;;;;;5040407;28;20181;-78
2023/05/07 07:27:24;;;;;;;3.30;3.00;;;;;;;;;;5041610;28;20184;-78
2023/05/07 07:29:49;;;;;;;3.03;2.80;;;;;;;;;;5044307;28;20263;-78
2023/05/07 07:32:14;;;;;;;4.40;3.40;;;;;;;;;;5043699;28;20177;-78
2023/05/07 07:34:39;;;;;;;5.57;3.60;;;;;;;;;;5044154;28;20181;-78
2023/05/07 07:37:06;;;;;;;4.47;2.93;;;;;;;;;;5049188;28;20219;-78
2023/05/07 07:39:34;;;;;;;4.13;3.53;;;;;;;;;;5044709;28;20265;-78
2023/05/07 07:41:59;;;;;;;4.23;3.93;;;;;;;;;;5066335;28;20177;-78
2023/05/07 07:44:25;;;;;;;3.50;3.20;;;;;;;;;;5041660;28;20179;-79
2023/05/07 07:46:50;;;;;;;8.10;6.10;;;;;;;;;;5041713;28;20178;-79
2023/05/07 07:49:15;;;;;;;9.90;7.70;;;;;;;;;;5040240;28;20185;-78
2023/05/07 07:51:41;;;;;;;8.73;7.23;;;;;;;;;;5035583;28;20285;-79
2023/05/07 07:54:06;;;;;;;5.20;4.23;;;;;;;;;;5043455;28;20185;-79
2023/05/07 07:56:32;;;;;;;4.60;4.27;;;;;;;;;;5046077;28;20184;-79
2023/05/07 07:58:58;;;;;;;3.80;3.50;;;;;;;;;;5047320;28;20201;-79
2023/05/07 08:01:23;;;;;;;3.10;2.90;;;;;;;;;;5045172;28;20180;-78
2023/05/07 08:03:48;;;;;;;6.80;6.30;;;;;;;;;;5039960;28;20248;-78
2023/05/07 08:06:14;;;;;;;5.30;3.87;;;;;;;;;;5044241;28;20177;-80
2023/05/07 08:08:39;;;;;;;5.17;3.93;;;;;;;;;;5042540;28;20196;-79
2023/05/07 08:11:04;;;;;;;3.70;3.40;;;;;;;;;;5039754;28;20189;-79
2023/05/07 08:13:29;;;;;;;3.50;3.10;;;;;;;;;;5037445;28;20189;-79
2023/05/07 08:15:54;;;;;;;3.23;3.03;;;;;;;;;;5039888;28;20190;-79
2023/05/07 08:18:20;;;;;;;4.30;3.50;;;;;;;;;;5050502;28;20207;-79
2023/05/07 08:20:45;;;;;;;4.40;3.67;;;;;;;;;;5038086;28;20189;-79
2023/05/07 08:23:10;;;;;;;5.20;3.30;;;;;;;;;;5041302;28;20284;-79
2023/05/07 08:25:36;;;;;;;4.27;3.93;;;;;;;;;;5043707;28;20181;-79
2023/05/07 08:28:01;;;;;;;4.23;3.33;;;;;;;;;;5040250;28;20203;-78
2023/05/07 08:30:26;;;;;;;6.23;5.30;;;;;;;;;;5046245;28;20221;-79
2023/05/07 08:32:51;;;;;;;5.20;3.87;;;;;;;;;;5040037;28;20198;-79
2023/05/07 08:35:17;;;;;;;5.10;3.77;;;;;;;;;;5045251;28;20186;-79
2023/05/07 08:37:42;;;;;;;4.80;4.40;;;;;;;;;;5045790;28;20208;-79
2023/05/07 08:40:07;;;;;;;4.97;3.47;;;;;;;;;;5037291;28;20171;-79
2023/05/07 08:42:35;;;;;;;4.47;4.07;;;;;;;;;;5042690;28;20180;-79
2023/05/07 08:45:02;;;;;;;7.47;3.87;;;;;;;;;;5041733;28;20189;-79
2023/05/07 08:47:29;;;;;;;5.47;4.97;;;;;;;;;;5047171;28;20269;-79
2023/05/07 08:49:55;;;;;;;5.33;4.87;;;;;;;;;;5046433;28;20181;-79
2023/05/07 08:52:20;;;;;;;5.27;4.17;;;;;;;;;;5047838;28;20182;-79
2023/05/07 08:54:45;;;;;;;3.47;3.17;;;;;;;;;;5042209;28;20238;-79
2023/05/07 08:57:11;;;;;;;4.40;3.80;;;;;;;;;;5046643;28;20227;-79
2023/05/07 08:59:36;;;;;;;7.30;3.73;;;;;;;;;;5048044;28;20207;-79
2023/05/07 09:02:01;;;;;;;5.40;3.40;;;;;;;;;;5052047;28;20182;-79
2023/05/07 09:04:27;;;;;;;4.70;3.47;;;;;;;;;;5050485;28;20184;-79
2023/05/07 09:06:52;;;;;;;3.40;3.20;;;;;;;;;;5048956;28;20194;-79
2023/05/07 09:09:18;;;;;;;3.50;3.20;;;;;;;;;;5045541;28;20246;-80
2023/05/07 09:11:44;;;;;;;3.50;3.10;;;;;;;;;;5046309;28;20185;-79
2023/05/07 09:14:09;;;;;;;4.43;4.03;;;;;;;;;;5045469;28;20269;-79
2023/05/07 09:16:34;;;;;;;3.80;3.50;;;;;;;;;;5043149;28;20199;-79
2023/05/07 09:19:00;;;;;;;3.87;3.40;;;;;;;;;;5045549;28;20209;-79
2023/05/07 09:21:25;;;;;;;3.90;2.97;;;;;;;;;;5047117;28;20185;-79
2023/05/07 09:23:52;;;;;;;4.30;3.43;;;;;;;;;;5046456;28;20196;-79
2023/05/07 09:26:17;;;;;;;5.50;3.30;;;;;;;;;;5034478;28;20191;-79
2023/05/07 09:28:43;;;;;;;4.03;3.30;;;;;;;;;;5048118;28;20272;-79
2023/05/07 09:31:08;;;;;;;5.13;3.53;;;;;;;;;;5042961;28;20251;-79
2023/05/07 09:33:33;;;;;;;3.07;2.77;;;;;;;;;;5044476;28;20185;-79
2023/05/07 09:36:01;;;;;;;5.73;3.07;;;;;;;;;;5042758;28;20199;-80
2023/05/07 09:38:28;;;;;;;4.73;3.70;;;;;;;;;;5046619;28;20276;-80
2023/05/07 09:41:04;;;;;;;4.03;3.23;;;;;;;;;;5045067;28;20264;-79
2023/05/07 09:43:31;;;;;;;3.50;3.20;;;;;;;;;;5043215;28;20181;-79
2023/05/07 09:45:57;;;;;;;3.17;2.83;;;;;;;;;;5036293;28;20181;-79
2023/05/07 09:48:23;;;;;;;3.40;2.80;;;;;;;;;;5045894;28;20232;-80
2023/05/07 09:50:49;;;;;;;3.50;3.20;;;;;;;;;;5039967;28;20185;-80
2023/05/07 09:53:15;;;;;;;3.20;2.90;;;;;;;;;;5056430;28;20201;-79
2023/05/07 09:55:41;;;;;;;3.10;2.80;;;;;;;;;;5044011;28;20186;-79
2023/05/07 09:58:06;;;;;;;2.80;2.60;;;;;;;;;;5041571;28;20188;-79
2023/05/07 10:00:32;;;;;;;3.20;2.90;;;;;;;;;;5045826;28;20213;-79
2023/05/07 10:02:58;;;;;;;4.43;2.80;;;;;;;;;;5039172;28;20209;-80
2023/05/07 10:05:23;;;;;;;3.47;3.00;;;;;;;;;;5037578;28;20184;-80
2023/05/07 10:07:50;;;;;;;6.67;3.70;;;;;;;;;;5043036;28;20184;-81
2023/05/07 10:10:15;;;;;;;3.90;3.60;;;;;;;;;;5044583;28;20284;-81
2023/05/07 10:12:41;;;;;;;5.00;3.40;;;;;;;;;;5042289;28;20272;-81
2023/05/07 10:15:07;;;;;;;5.83;3.73;;;;;;;;;;5040149;28;20187;-82
2023/05/07 10:17:34;;;;;;;3.87;3.03;;;;;;;;;;5040624;28;20179;-82
2023/05/07 10:20:00;;;;;;;3.77;3.17;;;;;;;;;;5039870;28;20193;-82
2023/05/07 10:22:27;;;;;;;3.53;3.03;;;;;;;;;;5045063;28;20181;-82
2023/05/07 10:24:54;;;;;;;4.40;4.00;;;;;;;;;;5044395;28;20184;-82
2023/05/07 10:27:20;;;;;;;6.93;3.80;;;;;;;;;;5045896;28;20178;-82
2023/05/07 10:29:55;;;;;;;10.33;4.37;;;;;;;;;;5044971;28;20212;-82
2023/05/07 10:32:40;;;;;;;6.27;3.30;;;;;;;;;;5046109;28;20190;-82
2023/05/07 10:35:10;;;;;;;5.33;3.00;;;;;;;;;;5045715;28;20187;-82
2023/05/07 10:37:35;;;;;;;4.13;3.30;;;;;;;;;;5042284;28;20183;-82
2023/05/07 10:40:01;;;;;;;5.17;4.13;;;;;;;;;;5038429;28;20179;-82
2023/05/07 10:42:26;;;;;;;3.20;2.90;;;;;;;;;;5044698;28;20188;-82
2023/05/07 10:44:51;;;;;;;2.83;2.33;;;;;;;;;;5038977;28;20245;-81
2023/05/07 10:47:18;;;;;;;3.03;2.73;;;;;;;;;;5045311;28;20178;-81
2023/05/07 10:49:43;;;;;;;3.53;2.90;;;;;;;;;;5042168;28;20276;-81
2023/05/07 10:52:19;;;;;;;4.57;3.27;;;;;;;;;;5044359;28;20267;-82
2023/05/07 10:54:44;;;;;;;4.30;4.00;;;;;;;;;;5045688;28;20190;-81
2023/05/07 10:57:28;;;;;;;6.80;4.27;;;;;;;;;;5044945;28;20292;-81
2023/05/07 10:59:53;;;;;;;4.03;3.73;;;;;;;;;;5046792;28;20235;-81
2023/05/07 11:02:19;;;;;;;5.47;3.87;;;;;;;;;;5042071;28;20202;-81
2023/05/07 11:04:44;;;;;;;5.47;4.80;;;;;;;;;;5046815;28;20185;-82
2023/05/07 11:07:26;;;;;;;4.70;4.30;;;;;;;;;;5047569;28;20223;-82
2023/05/07 11:09:51;;;;;;;5.17;4.77;;;;;;;;;;5044514;28;20312;-81
2023/05/07 11:12:17;;;;;;;5.13;4.73;;;;;;;;;;5042864;28;20219;-82
2023/05/07 11:14:43;;;;;;;8.23;5.20;;;;;;;;;;5043080;28;20288;-81
2023/05/07 11:17:09;;;;;;;5.80;5.30;;;;;;;;;;5044030;28;20184;-81
2023/05/07 11:19:58;;;;;;;5.30;4.80;;;;;;;;;;5047271;28;20206;-81
2023/05/07 11:22:36;;;;;;;4.73;4.33;;;;;;;;;;5049608;28;20180;-81
2023/05/07 11:25:05;;;;;;;7.73;6.17;;;;;;;;;;5045515;28;20216;-81
2023/05/07 11:27:31;;;;;;;5.87;5.33;;;;;;;;;;5041778;28;20204;-81
2023/05/07 11:29:56;;;;;;;6.70;4.83;;;;;;;;;;5043060;28;20258;-81
2023/05/07 11:32:22;;;;;;;4.90;4.60;;;;;;;;;;5038138;28;20194;-81
2023/05/07 11:34:51;;;;;;;6.07;5.47;;;;;;;;;;5044245;28;20217;-81
2023/05/07 11:37:17;;;;;;;5.57;5.13;;;;;;;;;;5044744;28;20186;-81
2023/05/07 11:39:42;;;;;;;6.27;5.00;;;;;;;;;;5035572;28;20288;-81
2023/05/07 11:42:24;;;;;;;6.63;5.90;;;;;;;;;;5045315;28;20196;-81
2023/05/07 11:44:49;;;;;;;6.67;6.13;;;;;;;;;;5042481;28;20191;-81
2023/05/07 11:47:18;;;;;;;5.43;4.93;;;;;;;;;;5037662;28;20182;-81
2023/05/07 11:49:46;;;;;;;4.97;4.57;;;;;;;;;;5043411;28;20194;-81
2023/05/07 11:52:12;;;;;;;4.80;4.50;;;;;;;;;;5044618;28;20235;-81
2023/05/07 11:54:37;;;;;;;4.00;3.53;;;;;;;;;;5047163;28;20185;-80
2023/05/07 11:57:03;;;;;;;4.80;3.80;;;;;;;;;;5045632;28;20283;-81
2023/05/07 11:59:28;;;;;;;3.17;2.87;;;;;;;;;;5046149;28;20233;-80
2023/05/07 12:01:57;;;;;;;3.13;2.93;;;;;;;;;;5045076;28;20252;-80
2023/05/07 12:04:22;;;;;;;4.57;3.30;;;;;;;;;;5038617;28;20181;-79
2023/05/07 12:06:47;;;;;;;3.20;3.00;;;;;;;;;;5048172;28;20183;-80
2023/05/07 12:09:13;;;;;;;3.30;3.07;;;;;;;;;;5048864;28;20187;-81
2023/05/07 12:11:39;;;;;;;3.40;2.60;;;;;;;;;;5048306;28;20290;-80
2023/05/07 12:14:05;;;;;;;3.27;2.83;;;;;;;;;;5042730;28;20187;-80
2023/05/07 12:16:30;;;;;;;3.20;2.90;;;;;;;;;;5047634;28;20230;-80
2023/05/07 12:18:56;;;;;;;2.63;2.40;;;;;;;;;;5046618;28;20213;-80
2023/05/07 12:21:21;;;;;;;3.67;2.73;;;;;;;;;;5045355;28;20184;-80
2023/05/07 12:23:47;;;;;;;3.03;2.73;;;;;;;;;;5043763;28;20182;-80
2023/05/07 12:26:12;;;;;;;2.73;2.53;;;;;;;;;;5037727;28;20181;-80
2023/05/07 12:28:38;;;;;;;2.90;2.50;;;;;;;;;;5040147;28;20267;-80
2023/05/07 12:31:05;;;;;;;3.80;2.67;;;;;;;;;;5040466;28;20229;-80
2023/05/07 12:33:31;;;;;;;3.60;2.60;;;;;;;;;;5042155;28;20177;-80
2023/05/07 12:35:56;;;;;;;2.70;2.10;;;;;;;;;;5043499;28;20259;-80
2023/05/07 12:38:22;;;;;;;2.40;2.20;;;;;;;;;;5049387;28;20279;-80
2023/05/07 12:40:50;;;;;;;5.20;2.40;;;;;;;;;;5046198;28;20180;-80
2023/05/07 12:43:26;;;;;;;2.93;2.63;;;;;;;;;;5048748;28;20163;-80
2023/05/07 12:45:51;;;;;;;2.73;2.50;;;;;;;;;;5046278;28;20255;-80
2023/05/07 12:48:17;;;;;;;3.00;2.70;;;;;;;;;;5046900;28;20200;-80
2023/05/07 12:50:42;;;;;;;3.67;2.40;;;;;;;;;;5044269;28;20182;-80
2023/05/07 12:53:09;;;;;;;3.13;2.87;;;;;;;;;;5047920;28;20238;-80
2023/05/07 12:55:44;;;;;;;3.00;2.70;;;;;;;;;;5043838;28;20189;-80
2023/05/07 12:58:20;;;;;;;3.10;2.80;;;;;;;;;;5043187;28;20198;-80
2023/05/07 13:00:47;;;;;;;2.70;2.50;;;;;;;;;;5047610;28;20198;-80
2023/05/07 13:03:20;;;;;;;3.50;3.23;;;;;;;;;;5043127;28;20190;-80
2023/05/07 13:05:45;;;;;;;3.20;2.90;;;;;;;;;;5056357;28;20176;-80
2023/05/07 13:08:10;;;;;;;3.10;2.80;;;;;;;;;;5041745;28;20171;-80
2023/05/07 13:10:36;;;;;;;4.37;3.97;;;;;;;;;;5042357;28;20221;-81
2023/05/07 13:13:01;;;;;;;3.67;2.93;;;;;;;;;;5048298;28;20214;-81
2023/05/07 13:15:27;;;;;;;3.97;2.90;;;;;;;;;;5044458;28;20269;-81
2023/05/07 13:17:52;;;;;;;3.10;2.60;;;;;;;;;;5048499;28;20209;-81
2023/05/07 13:20:17;;;;;;;3.07;2.50;;;;;;;;;;5040040;28;20184;-81
2023/05/07 13:22:42;;;;;;;2.47;2.27;;;;;;;;;;5047937;28;20181;-81
2023/05/07 13:25:08;;;;;;;3.07;2.30;;;;;;;;;;5047338;28;20193;-81
2023/05/07 13:27:36;;;;;;;2.67;2.47;;;;;;;;;;5048500;28;20216;-81
2023/05/07 13:30:01;;;;;;;2.80;2.60;;;;;;;;;;5048847;28;20260;-81
2023/05/07 13:32:27;;;;;;;3.27;2.10;;;;;;;;;;5045978;28;20206;-81
2023/05/07 13:34:52;;;;;;;2.23;2.03;;;;;;;;;;5040521;28;20183;-80
2023/05/07 13:37:17;;;;;;;2.10;1.90;;;;;;;;;;5043222;28;20224;-81
2023/05/07 13:39:42;;;;;;;3.30;2.27;;;;;;;;;;5039468;28;20249;-80
2023/05/07 13:42:07;;;;;;;2.33;2.13;;;;;;;;;;5045554;28;20199;-81
2023/05/07 13:44:33;;;;;;;3.03;2.10;;;;;;;;;;5058751;28;20213;-80
2023/05/07 13:46:58;;;;;;;2.30;2.10;;;;;;;;;;5044179;28;20209;-80
2023/05/07 13:49:23;;;;;;;2.10;1.87;;;;;;;;;;5051105;28;20178;-80
2023/05/07 13:51:49;;;;;;;3.60;1.90;;;;;;;;;;5049390;28;20174;-80
2023/05/07 13:54:14;;;;;;;4.73;2.53;;;;;;;;;;5040505;28;20187;-80
2023/05/07 13:56:39;;;;;;;5.37;2.57;;;;;;;;;;5051210;28;20173;-80
2023/05/07 13:59:05;;;;;;;2.40;2.20;;;;;;;;;;5050081;28;20202;-80
2023/05/07 14:01:30;;;;;;;2.63;2.43;;;;;;;;;;5047855;28;20231;-80
2023/05/07 14:03:56;;;;;;;4.10;2.40;;;;;;;;;;5044453;28;20194;-80
2023/05/07 14:06:22;;;;;;;2.60;2.23;;;;;;;;;;5049552;28;20261;-80
2023/05/07 14:08:47;;;;;;;6.67;2.50;;;;;;;;;;5047066;28;20266;-80
2023/05/07 14:11:12;;;;;;;2.50;2.30;;;;;;;;;;5043803;28;20268;-80
2023/05/07 14:13:38;;;;;;;4.20;2.30;;;;;;;;;;5066142;28;20182;-80
2023/05/07 14:16:04;;;;;;;3.10;2.50;;;;;;;;;;5040856;28;20181;-80
2023/05/07 14:18:29;;;;;;;2.83;2.07;;;;;;;;;;5044292;28;20187;-80
2023/05/07 14:20:54;;;;;;;2.50;2.30;;;;;;;;;;5044903;28;20176;-81
2023/05/07 14:23:21;;;;;;;2.30;1.93;;;;;;;;;;5048214;28;20234;-81
2023/05/07 14:25:47;;;;;;;3.10;2.40;;;;;;;;;;5042533;28;20253;-81
2023/05/07 14:28:12;;;;;;;2.33;2.13;;;;;;;;;;5040757;28;20236;-81
2023/05/07 14:30:38;;;;;;;2.40;2.20;;;;;;;;;;5046660;28;20232;-81
2023/05/07 14:33:03;;;;;;;4.43;2.67;;;;;;;;;;5044343;28;20178;-81
2023/05/07 14:35:28;;;;;;;2.30;2.13;;;;;;;;;;5044363;28;20270;-81